Time;durP1;ratioP1;P1;durP2;ratioP2;P2;SDS_P1;SDS_P2;PMS_P1;PMS_P2;Temp;Humidity;BMP_temperature;BMP_pressure;BME280_temperature;BME280_humidity;BME280_pressure;Samples;Min_cycle;Max_cycle;Signal;HPM_P1;HPM_P2
2021/12/16 00:01:58;;;;;;;14.13;8.48;;;;;;;;;;5025451;28;20511;-68
2021/12/16 00:07:33;;;;;;;11.02;7.20;;;;;;;;;;5018078;28;20030;-68
2021/12/16 00:29:59;;;;;;;9.57;5.82;;;;;;;;;;5030792;28;20466;-68
2021/12/16 00:31:52;;;;;;;9.25;6.25;;;;;;;;;;5014461;28;20495;-68
2021/12/16 00:34:19;;;;;;;15.15;8.85;;;;;;;;;;5020867;28;20045;-68
2021/12/16 00:36:46;;;;;;;10.50;6.15;;;;;;;;;;5029969;28;20075;-68
2021/12/16 00:39:17;;;;;;;8.13;5.20;;;;;;;;;;5021790;28;20018;-69
2021/12/16 00:41:46;;;;;;;9.95;6.07;;;;;;;;;;5021364;28;20028;-69
2021/12/16 00:44:37;;;;;;;12.77;7.13;;;;;;;;;;5021498;28;20054;-69
2021/12/16 00:49:38;;;;;;;16.98;8.50;;;;;;;;;;5019910;28;20025;-69
2021/12/16 00:54:59;;;;;;;12.15;7.25;;;;;;;;;;5029409;28;20040;-68
2021/12/16 00:57:25;;;;;;;11.13;7.35;;;;;;;;;;5018519;28;20140;-68
2021/12/16 00:59:52;;;;;;;14.35;8.38;;;;;;;;;;5025391;28;20052;-68
2021/12/16 01:33:32;;;;;;;10.20;7.18;;;;;;;;;;5024418;28;20395;-68
2021/12/16 01:45:38;;;;;;;10.00;7.28;;;;;;;;;;5029136;28;20185;-69
2021/12/16 01:50:59;;;;;;;11.15;7.63;;;;;;;;;;5005552;28;20515;-69
2021/12/16 01:59:01;;;;;;;15.85;9.82;;;;;;;;;;5029220;28;20084;-67
2021/12/16 02:01:31;;;;;;;11.07;7.43;;;;;;;;;;5017540;28;20018;-68
2021/12/16 02:04:01;;;;;;;9.70;7.00;;;;;;;;;;5022416;28;20062;-68
2021/12/16 02:09:05;;;;;;;11.75;7.68;;;;;;;;;;5015756;28;20030;-67
2021/12/16 02:28:09;;;;;;;13.73;8.50;;;;;;;;;;5023991;28;20564;-68
2021/12/16 02:35:59;;;;;;;12.32;7.97;;;;;;;;;;5020267;28;20118;-68
2021/12/16 02:38:28;;;;;;;13.65;8.00;;;;;;;;;;5017913;28;20468;-68
2021/12/16 02:40:55;;;;;;;11.63;7.75;;;;;;;;;;5031184;28;20026;-68
2021/12/16 02:48:42;;;;;;;12.63;7.85;;;;;;;;;;5026920;28;20057;-68
2021/12/16 02:51:14;;;;;;;15.10;9.07;;;;;;;;;;5015102;28;20116;-68
2021/12/16 02:53:42;;;;;;;17.13;10.07;;;;;;;;;;5024162;28;20029;-68
2021/12/16 02:56:08;;;;;;;11.65;7.35;;;;;;;;;;5022405;28;20492;-68
2021/12/16 02:58:35;;;;;;;15.52;8.93;;;;;;;;;;5015873;28;20362;-68
2021/12/16 03:01:04;;;;;;;17.67;10.90;;;;;;;;;;5027800;28;20333;-68
2021/12/16 03:03:30;;;;;;;12.07;7.95;;;;;;;;;;5016307;28;20057;-68
2021/12/16 03:05:58;;;;;;;13.40;8.65;;;;;;;;;;5022338;28;20029;-67
2021/12/16 03:08:25;;;;;;;14.85;8.38;;;;;;;;;;5025602;28;20111;-67
2021/12/16 03:11:03;;;;;;;16.88;10.77;;;;;;;;;;5015119;28;20395;-67
2021/12/16 03:13:35;;;;;;;13.25;9.05;;;;;;;;;;5025579;28;20014;-67
2021/12/16 03:16:31;;;;;;;14.80;9.85;;;;;;;;;;5021452;28;20525;-67
2021/12/16 03:19:11;;;;;;;18.83;10.88;;;;;;;;;;5016932;28;20128;-67
2021/12/16 03:21:43;;;;;;;14.40;9.75;;;;;;;;;;5021920;28;20025;-67
2021/12/16 03:27:25;;;;;;;21.92;13.18;;;;;;;;;;5031737;28;20033;-67
2021/12/16 03:30:02;;;;;;;16.55;9.82;;;;;;;;;;5014231;28;20407;-67
2021/12/16 03:32:58;;;;;;;18.83;10.90;;;;;;;;;;5028203;28;20029;-67
2021/12/16 03:35:31;;;;;;;15.77;9.73;;;;;;;;;;5019945;28;20383;-67
2021/12/16 03:38:00;;;;;;;18.98;11.82;;;;;;;;;;5025868;28;20018;-67
2021/12/16 03:40:26;;;;;;;18.02;11.45;;;;;;;;;;5028262;28;20022;-68
2021/12/16 03:42:58;;;;;;;18.77;11.57;;;;;;;;;;5017672;28;20349;-67
2021/12/16 03:48:27;;;;;;;23.57;14.07;;;;;;;;;;5026797;28;20036;-67
2021/12/16 03:50:53;;;;;;;25.42;14.57;;;;;;;;;;5018126;28;20033;-67
2021/12/16 03:53:19;;;;;;;22.77;13.93;;;;;;;;;;5029829;28;20028;-67
2021/12/16 03:55:46;;;;;;;21.92;13.95;;;;;;;;;;5021200;28;20028;-67
2021/12/16 03:58:12;;;;;;;24.02;13.95;;;;;;;;;;5023661;28;20029;-68
2021/12/16 04:00:43;;;;;;;21.05;13.25;;;;;;;;;;5029483;28;20025;-67
2021/12/16 04:03:09;;;;;;;17.38;10.43;;;;;;;;;;5017571;28;20026;-67
2021/12/16 04:05:35;;;;;;;26.95;14.57;;;;;;;;;;5028509;28;20029;-68
2021/12/16 04:08:01;;;;;;;26.88;16.25;;;;;;;;;;5024324;28;20116;-67
2021/12/16 04:10:37;;;;;;;22.95;15.13;;;;;;;;;;5020875;28;20108;-67
2021/12/16 04:13:05;;;;;;;25.23;14.27;;;;;;;;;;5030383;28;20026;-67
2021/12/16 04:15:32;;;;;;;30.55;14.90;;;;;;;;;;5020191;28;20017;-67
2021/12/16 04:17:58;;;;;;;28.95;16.00;;;;;;;;;;5024926;28;20109;-67
2021/12/16 04:20:24;;;;;;;26.80;15.68;;;;;;;;;;5050256;22;20049;-68
2021/12/16 04:22:51;;;;;;;25.00;16.05;;;;;;;;;;5033702;28;20419;-68
2021/12/16 04:25:27;;;;;;;31.83;17.23;;;;;;;;;;5034003;28;20025;-69
2021/12/16 04:27:55;;;;;;;31.15;17.42;;;;;;;;;;5034019;28;20049;-68
2021/12/16 04:30:23;;;;;;;24.20;15.55;;;;;;;;;;5033683;28;20029;-68
2021/12/16 04:32:49;;;;;;;26.10;14.88;;;;;;;;;;5017380;28;20416;-69
2021/12/16 04:35:15;;;;;;;27.75;15.70;;;;;;;;;;5030510;28;20018;-69
2021/12/16 04:37:42;;;;;;;22.55;15.05;;;;;;;;;;5022029;28;20060;-69
2021/12/16 04:40:09;;;;;;;29.67;17.08;;;;;;;;;;5023525;28;20046;-69
2021/12/16 04:42:36;;;;;;;28.88;17.05;;;;;;;;;;5028611;28;20045;-68
2021/12/16 04:45:04;;;;;;;29.45;17.40;;;;;;;;;;5016682;28;20033;-69
2021/12/16 04:47:30;;;;;;;24.55;16.70;;;;;;;;;;5028408;28;20033;-69
2021/12/16 04:49:56;;;;;;;27.30;16.80;;;;;;;;;;5023367;28;20064;-69
2021/12/16 04:52:22;;;;;;;25.73;16.27;;;;;;;;;;5021187;28;20436;-68
2021/12/16 04:54:48;;;;;;;25.23;16.55;;;;;;;;;;5029147;28;20056;-68
2021/12/16 04:57:15;;;;;;;29.70;18.77;;;;;;;;;;5032389;28;20111;-68
2021/12/16 04:59:41;;;;;;;32.15;19.48;;;;;;;;;;5026624;28;20018;-67
2021/12/16 05:02:14;;;;;;;33.88;19.80;;;;;;;;;;5024462;28;20025;-68
2021/12/16 05:04:40;;;;;;;35.28;20.55;;;;;;;;;;5017727;28;20033;-68
2021/12/16 05:07:06;;;;;;;34.55;19.90;;;;;;;;;;5030042;28;20025;-67
2021/12/16 05:12:02;;;;;;;33.55;20.20;;;;;;;;;;5023825;28;20030;-68
2021/12/16 05:14:28;;;;;;;33.70;21.15;;;;;;;;;;5026143;28;20057;-68
2021/12/16 05:16:54;;;;;;;38.38;21.08;;;;;;;;;;5016413;28;20042;-68
2021/12/16 05:19:22;;;;;;;33.55;20.95;;;;;;;;;;5028612;28;20029;-67
2021/12/16 05:21:56;;;;;;;37.55;22.77;;;;;;;;;;5021242;28;20055;-68
2021/12/16 05:24:28;;;;;;;33.17;21.00;;;;;;;;;;5019819;28;20476;-68
2021/12/16 05:26:55;;;;;;;37.00;21.02;;;;;;;;;;5029537;28;20064;-67
2021/12/16 05:29:21;;;;;;;32.63;20.88;;;;;;;;;;5013146;28;20033;-68
2021/12/16 05:31:47;;;;;;;34.05;21.25;;;;;;;;;;5021031;28;20097;-67
2021/12/16 05:34:14;;;;;;;35.08;20.92;;;;;;;;;;5020484;28;20049;-68
2021/12/16 05:36:40;;;;;;;35.10;21.23;;;;;;;;;;5027723;28;20033;-69
2021/12/16 05:39:07;;;;;;;36.95;21.55;;;;;;;;;;5016184;28;20160;-68
2021/12/16 05:41:33;;;;;;;33.85;21.60;;;;;;;;;;5024418;28;20044;-68
2021/12/16 05:43:59;;;;;;;32.95;21.33;;;;;;;;;;5021752;28;20025;-68
2021/12/16 05:46:26;;;;;;;35.53;21.50;;;;;;;;;;5019563;28;20029;-68
2021/12/16 05:48:54;;;;;;;33.22;21.65;;;;;;;;;;5028763;28;20026;-68
2021/12/16 05:51:22;;;;;;;44.75;21.63;;;;;;;;;;5017261;28;20363;-68
2021/12/16 05:53:48;;;;;;;34.90;21.25;;;;;;;;;;5023790;28;20026;-68
2021/12/16 05:56:14;;;;;;;38.45;22.85;;;;;;;;;;5024394;28;20212;-67
2021/12/16 05:58:40;;;;;;;42.75;22.98;;;;;;;;;;5017507;28;20026;-67
2021/12/16 06:01:08;;;;;;;32.17;19.98;;;;;;;;;;5028794;28;20023;-67
2021/12/16 06:03:35;;;;;;;36.83;21.55;;;;;;;;;;5017855;28;20022;-67
2021/12/16 06:06:01;;;;;;;35.35;20.83;;;;;;;;;;5022723;28;20030;-69
2021/12/16 06:08:28;;;;;;;35.33;19.92;;;;;;;;;;5025671;28;20104;-68
2021/12/16 06:13:22;;;;;;;36.28;19.33;;;;;;;;;;5027586;28;20105;-69
2021/12/16 06:29:05;;;;;;;33.03;19.05;;;;;;;;;;5031442;28;20111;-70
2021/12/16 06:31:31;;;;;;;34.63;19.45;;;;;;;;;;5027223;28;20121;-68
2021/12/16 06:33:58;;;;;;;33.15;19.67;;;;;;;;;;5021671;28;20529;-68
2021/12/16 06:36:24;;;;;;;31.58;19.67;;;;;;;;;;5019241;28;20072;-68
2021/12/16 06:38:50;;;;;;;31.67;19.98;;;;;;;;;;5028443;28;20053;-68
2021/12/16 06:41:17;;;;;;;37.13;21.65;;;;;;;;;;5014261;28;20107;-68
2021/12/16 06:43:44;;;;;;;36.75;22.15;;;;;;;;;;5023632;28;20105;-67
2021/12/16 06:46:14;;;;;;;30.42;20.85;;;;;;;;;;5023239;28;20036;-67
2021/12/16 06:48:43;;;;;;;34.78;20.30;;;;;;;;;;5016276;28;20042;-68
2021/12/16 06:51:18;;;;;;;32.90;20.20;;;;;;;;;;5028052;28;20109;-67
2021/12/16 06:54:04;;;;;;;35.90;20.02;;;;;;;;;;5018490;28;20021;-68
2021/12/16 06:56:37;;;;;;;31.67;19.45;;;;;;;;;;5017408;28;20407;-70
2021/12/16 06:59:11;;;;;;;32.47;19.90;;;;;;;;;;5026466;28;20040;-68
2021/12/16 07:01:40;;;;;;;32.35;19.17;;;;;;;;;;5017765;28;20041;-67
2021/12/16 07:04:07;;;;;;;34.17;20.15;;;;;;;;;;5018475;28;20460;-68
2021/12/16 07:06:34;;;;;;;34.72;20.85;;;;;;;;;;5025634;28;20037;-68
2021/12/16 07:09:04;;;;;;;35.35;20.60;;;;;;;;;;5014554;28;20037;-68
2021/12/16 07:11:30;;;;;;;33.72;20.63;;;;;;;;;;5025328;28;20026;-68
2021/12/16 07:14:01;;;;;;;34.28;19.90;;;;;;;;;;5019446;28;20112;-68
2021/12/16 07:16:29;;;;;;;31.95;20.30;;;;;;;;;;5017423;28;20018;-68
2021/12/16 07:18:57;;;;;;;33.13;20.05;;;;;;;;;;5027623;28;20053;-67
2021/12/16 07:21:23;;;;;;;35.75;19.63;;;;;;;;;;5015707;28;20033;-68
2021/12/16 07:23:50;;;;;;;35.25;20.17;;;;;;;;;;5022680;28;20026;-68
2021/12/16 07:26:16;;;;;;;42.40;22.00;;;;;;;;;;5023112;28;20553;-68
2021/12/16 07:28:42;;;;;;;38.40;20.92;;;;;;;;;;5015600;28;20112;-67
2021/12/16 07:31:08;;;;;;;36.08;20.65;;;;;;;;;;5012133;28;20469;-68
2021/12/16 07:33:34;;;;;;;33.42;20.02;;;;;;;;;;5024304;28;20491;-68
2021/12/16 07:36:02;;;;;;;36.85;21.60;;;;;;;;;;5020665;28;20029;-69
2021/12/16 07:38:29;;;;;;;37.63;21.40;;;;;;;;;;5017133;28;20014;-68
2021/12/16 07:40:56;;;;;;;32.67;19.63;;;;;;;;;;5027284;28;20315;-69
2021/12/16 07:43:41;;;;;;;36.45;21.48;;;;;;;;;;5015061;28;20021;-68
2021/12/16 07:46:07;;;;;;;40.45;22.80;;;;;;;;;;5019188;28;20026;-67
2021/12/16 07:48:33;;;;;;;43.42;24.88;;;;;;;;;;5025173;28;20026;-68
2021/12/16 07:51:01;;;;;;;43.10;23.95;;;;;;;;;;5014149;28;20076;-68
2021/12/16 07:53:27;;;;;;;44.58;24.58;;;;;;;;;;5024752;28;20056;-68
2021/12/16 07:55:54;;;;;;;46.60;25.92;;;;;;;;;;5019759;28;20089;-68
2021/12/16 07:58:20;;;;;;;51.58;25.55;;;;;;;;;;5017930;28;20538;-68
2021/12/16 08:00:46;;;;;;;39.75;24.27;;;;;;;;;;5026621;28;20028;-68
2021/12/16 08:03:13;;;;;;;49.55;25.88;;;;;;;;;;5013797;28;20480;-68
2021/12/16 08:05:44;;;;;;;50.10;26.85;;;;;;;;;;5027239;28;20022;-68
2021/12/16 08:08:10;;;;;;;49.60;26.90;;;;;;;;;;5025389;28;20048;-69
2021/12/16 08:10:37;;;;;;;51.72;28.52;;;;;;;;;;5018630;28;20046;-68
2021/12/16 08:13:03;;;;;;;50.72;28.65;;;;;;;;;;5029795;28;20055;-67
2021/12/16 08:15:30;;;;;;;47.22;25.75;;;;;;;;;;5019810;28;20104;-69
2021/12/16 08:17:56;;;;;;;51.58;27.80;;;;;;;;;;5025195;28;20153;-68
2021/12/16 08:20:23;;;;;;;55.20;29.23;;;;;;;;;;5026429;28;20467;-68
2021/12/16 08:22:50;;;;;;;54.25;28.40;;;;;;;;;;5015774;28;20026;-67
2021/12/16 08:25:17;;;;;;;62.58;29.67;;;;;;;;;;5017732;28;20079;-68
2021/12/16 08:27:43;;;;;;;54.50;26.55;;;;;;;;;;5026873;28;20053;-69
2021/12/16 08:30:11;;;;;;;51.58;27.67;;;;;;;;;;5013702;28;20498;-68
2021/12/16 08:32:37;;;;;;;51.17;27.27;;;;;;;;;;5028352;28;20041;-68
2021/12/16 08:35:06;;;;;;;58.10;26.65;;;;;;;;;;5030706;28;20498;-68
2021/12/16 08:37:32;;;;;;;49.25;26.40;;;;;;;;;;5019410;28;20025;-68
2021/12/16 08:39:58;;;;;;;54.13;27.08;;;;;;;;;;5029293;28;20030;-67
2021/12/16 08:42:24;;;;;;;54.55;27.83;;;;;;;;;;5019913;28;20026;-68
2021/12/16 08:44:50;;;;;;;52.22;26.48;;;;;;;;;;5028473;28;20033;-67
2021/12/16 08:47:18;;;;;;;57.15;29.67;;;;;;;;;;5024908;28;20433;-69
2021/12/16 08:49:45;;;;;;;54.35;28.90;;;;;;;;;;5019600;28;20056;-67
2021/12/16 08:52:17;;;;;;;53.80;27.73;;;;;;;;;;5020554;28;20511;-67
2021/12/16 08:54:43;;;;;;;52.60;27.10;;;;;;;;;;5013514;28;20030;-68
2021/12/16 08:57:10;;;;;;;50.40;26.88;;;;;;;;;;5030986;28;20025;-67
2021/12/16 08:59:36;;;;;;;51.30;26.65;;;;;;;;;;5025662;28;20010;-68
2021/12/16 09:02:07;;;;;;;49.88;26.00;;;;;;;;;;5021971;28;20022;-68
2021/12/16 09:04:33;;;;;;;50.28;25.90;;;;;;;;;;5016570;28;20026;-68
2021/12/16 09:07:00;;;;;;;47.22;26.10;;;;;;;;;;5028135;28;20491;-68
2021/12/16 09:09:32;;;;;;;48.78;25.33;;;;;;;;;;5017352;28;20057;-68
2021/12/16 09:12:06;;;;;;;;;;;;;;;;;;5023530;28;20092;-67
2021/12/16 09:14:35;;;;;;;43.83;23.58;;;;;;;;;;5026449;28;19916;-68
2021/12/16 09:17:01;;;;;;;52.05;25.23;;;;;;;;;;5015101;28;20033;-68
2021/12/16 09:19:27;;;;;;;45.88;23.38;;;;;;;;;;5025977;28;20034;-68
2021/12/16 09:21:53;;;;;;;46.00;26.10;;;;;;;;;;5020389;28;20036;-68
2021/12/16 09:24:19;;;;;;;45.22;24.70;;;;;;;;;;5017218;28;20021;-69
2021/12/16 09:26:46;;;;;;;46.92;24.30;;;;;;;;;;5027602;28;20033;-69
2021/12/16 09:29:12;;;;;;;49.00;25.48;;;;;;;;;;5012301;28;20025;-68
2021/12/16 09:31:38;;;;;;;42.83;24.15;;;;;;;;;;5019778;28;20475;-69
2021/12/16 09:34:07;;;;;;;41.70;20.95;;;;;;;;;;5020608;28;20018;-69
2021/12/16 09:36:34;;;;;;;41.10;22.88;;;;;;;;;;5025761;28;20029;-69
2021/12/16 09:39:00;;;;;;;39.75;23.42;;;;;;;;;;5016325;28;20038;-69
2021/12/16 09:41:27;;;;;;;37.15;21.40;;;;;;;;;;5027706;28;20021;-69
2021/12/16 09:43:54;;;;;;;41.33;23.05;;;;;;;;;;5019694;28;20025;-70
2021/12/16 09:46:22;;;;;;;48.45;23.55;;;;;;;;;;5020519;28;20076;-70
2021/12/16 09:48:48;;;;;;;48.88;24.98;;;;;;;;;;5027587;28;20053;-70
2021/12/16 09:51:17;;;;;;;41.00;23.92;;;;;;;;;;5016038;28;20021;-69
2021/12/16 09:53:43;;;;;;;45.80;24.90;;;;;;;;;;5024888;28;20018;-71
2021/12/16 09:56:09;;;;;;;58.80;26.40;;;;;;;;;;5022077;28;20029;-69
2021/12/16 09:58:38;;;;;;;47.85;27.23;;;;;;;;;;5018126;28;20022;-69
2021/12/16 10:01:05;;;;;;;51.45;27.38;;;;;;;;;;5026527;28;20080;-70
2021/12/16 10:03:31;;;;;;;49.05;25.17;;;;;;;;;;5027738;28;20015;-71
2021/12/16 10:05:57;;;;;;;49.38;26.25;;;;;;;;;;5028705;28;20029;-70
2021/12/16 10:08:23;;;;;;;51.17;28.58;;;;;;;;;;5030887;28;20108;-70
2021/12/16 10:10:49;;;;;;;55.55;27.83;;;;;;;;;;5029858;28;20117;-69
2021/12/16 10:13:22;;;;;;;57.55;29.02;;;;;;;;;;5029974;28;20018;-68
2021/12/16 10:18:30;;;;;;;45.53;25.02;;;;;;;;;;5032264;28;20041;-68
2021/12/16 10:20:57;;;;;;;45.72;24.27;;;;;;;;;;5036907;22;20528;-71
2021/12/16 10:23:30;;;;;;;43.85;23.38;;;;;;;;;;5010154;28;20496;-70
2021/12/16 10:26:00;;;;;;;47.28;23.08;;;;;;;;;;5012764;28;20029;-70
2021/12/16 10:28:28;;;;;;;46.38;23.60;;;;;;;;;;5012317;28;20491;-71
2021/12/16 10:31:03;;;;;;;40.70;23.10;;;;;;;;;;5012549;28;20024;-71
2021/12/16 10:33:44;;;;;;;39.85;21.70;;;;;;;;;;5011752;28;20489;-70
2021/12/16 10:36:17;;;;;;;37.53;21.27;;;;;;;;;;5007299;28;20539;-72
2021/12/16 10:38:46;;;;;;;38.50;21.73;;;;;;;;;;4983913;28;20395;-71
2021/12/16 10:41:16;;;;;;;36.20;20.45;;;;;;;;;;4992645;28;20031;-72
2021/12/16 10:43:47;;;;;;;39.35;21.05;;;;;;;;;;4991703;28;20407;-70
2021/12/16 10:46:16;;;;;;;41.47;22.83;;;;;;;;;;4992542;28;20508;-72
2021/12/16 10:48:44;;;;;;;34.65;19.20;;;;;;;;;;4992602;28;20105;-71
2021/12/16 10:51:21;;;;;;;33.65;19.55;;;;;;;;;;4992130;28;20476;-71
2021/12/16 10:53:50;;;;;;;37.00;21.05;;;;;;;;;;4991493;28;20042;-71
2021/12/16 10:56:17;;;;;;;34.47;20.23;;;;;;;;;;4995415;28;20057;-71
2021/12/16 10:58:51;;;;;;;29.73;19.50;;;;;;;;;;4996951;28;20041;-71
2021/12/16 11:01:35;;;;;;;34.58;20.60;;;;;;;;;;5004194;28;20030;-71
2021/12/16 11:04:02;;;;;;;34.00;21.02;;;;;;;;;;4991537;28;20080;-71
2021/12/16 11:06:33;;;;;;;32.08;19.80;;;;;;;;;;5007096;28;20048;-71
2021/12/16 11:09:21;;;;;;;36.00;21.50;;;;;;;;;;5011945;28;20404;-70
2021/12/16 11:11:47;;;;;;;34.00;18.25;;;;;;;;;;5011713;28;20030;-71
2021/12/16 11:14:21;;;;;;;34.05;21.02;;;;;;;;;;4999255;28;20034;-71
2021/12/16 11:16:56;;;;;;;29.05;17.98;;;;;;;;;;4991856;28;20026;-71
2021/12/16 11:19:42;;;;;;;31.98;19.50;;;;;;;;;;4992709;28;20034;-72
2021/12/16 11:22:09;;;;;;;35.10;19.92;;;;;;;;;;4992284;28;20033;-72
2021/12/16 11:24:35;;;;;;;33.10;18.85;;;;;;;;;;4991919;28;20036;-71
2021/12/16 11:27:19;;;;;;;27.65;18.15;;;;;;;;;;4992491;28;20113;-72
2021/12/16 11:29:45;;;;;;;28.52;17.02;;;;;;;;;;4992227;28;20037;-71
2021/12/16 11:32:31;;;;;;;29.38;18.63;;;;;;;;;;4990351;28;20364;-71
2021/12/16 11:34:57;;;;;;;31.95;18.38;;;;;;;;;;4990880;28;20062;-71
2021/12/16 11:37:23;;;;;;;30.65;18.48;;;;;;;;;;4991992;28;20095;-71
2021/12/16 11:39:49;;;;;;;32.90;19.48;;;;;;;;;;4994095;28;20097;-71
2021/12/16 11:42:15;;;;;;;31.25;18.15;;;;;;;;;;4994738;28;20462;-72
2021/12/16 11:44:42;;;;;;;30.85;18.13;;;;;;;;;;4994613;28;20037;-72
2021/12/16 11:47:08;;;;;;;27.77;17.15;;;;;;;;;;4996017;28;20074;-71
2021/12/16 11:49:42;;;;;;;30.83;17.42;;;;;;;;;;4995691;28;20026;-71
2021/12/16 11:52:13;;;;;;;26.00;16.27;;;;;;;;;;4995668;28;20030;-70
2021/12/16 11:54:39;;;;;;;;;;;;;;;;;;4993940;28;20022;-70
2021/12/16 11:57:08;;;;;;;29.30;15.85;;;;;;;;;;4994825;28;20005;-72
2021/12/16 11:59:39;;;;;;;23.05;14.20;;;;;;;;;;4994905;28;20023;-70
2021/12/16 12:02:06;;;;;;;21.55;14.10;;;;;;;;;;4993723;28;20026;-71
2021/12/16 12:04:36;;;;;;;23.58;13.80;;;;;;;;;;4994610;28;20057;-71
2021/12/16 12:07:03;;;;;;;;;;;;;;;;;;4995817;28;20054;-72
2021/12/16 12:09:35;;;;;;;21.70;12.23;;;;;;;;;;4993844;28;19998;-73
2021/12/16 12:12:01;;;;;;;18.73;12.40;;;;;;;;;;4995294;28;20026;-70
2021/12/16 12:14:31;;;;;;;20.33;12.60;;;;;;;;;;4994430;28;20053;-71
2021/12/16 12:17:03;;;;;;;20.70;12.85;;;;;;;;;;4995289;28;20439;-71
2021/12/16 12:19:28;;;;;;;18.17;12.05;;;;;;;;;;4994992;28;20461;-70
2021/12/16 12:21:58;;;;;;;19.02;11.95;;;;;;;;;;4995070;28;20034;-71
2021/12/16 12:24:35;;;;;;;15.63;10.63;;;;;;;;;;4994527;28;20026;-71
2021/12/16 12:27:01;;;;;;;19.80;11.48;;;;;;;;;;4994927;28;20034;-72
2021/12/16 12:29:29;;;;;;;17.42;11.93;;;;;;;;;;4993753;28;20443;-71
2021/12/16 12:31:58;;;;;;;17.60;11.73;;;;;;;;;;4992988;28;20485;-71
2021/12/16 12:34:23;;;;;;;18.27;11.52;;;;;;;;;;5007329;28;20034;-71
2021/12/16 12:36:51;;;;;;;18.27;11.27;;;;;;;;;;4992826;28;20528;-71
2021/12/16 12:39:19;;;;;;;15.48;10.50;;;;;;;;;;4992880;28;20080;-71
2021/12/16 12:41:46;;;;;;;15.13;9.95;;;;;;;;;;4992758;28;20034;-71
2021/12/16 12:44:13;;;;;;;16.10;10.15;;;;;;;;;;4993054;28;20080;-71
2021/12/16 12:46:39;;;;;;;15.45;10.27;;;;;;;;;;4999126;28;20033;-70
2021/12/16 12:49:07;;;;;;;16.55;10.02;;;;;;;;;;5002637;28;20029;-72
2021/12/16 12:51:39;;;;;;;16.73;10.40;;;;;;;;;;5008292;28;20105;-73
2021/12/16 12:54:22;;;;;;;19.15;12.35;;;;;;;;;;5012869;28;20054;-71
2021/12/16 12:56:49;;;;;;;16.58;11.60;;;;;;;;;;4994552;28;20026;-71
2021/12/16 12:59:16;;;;;;;16.95;11.15;;;;;;;;;;4994153;28;20400;-72
2021/12/16 13:01:44;;;;;;;18.67;11.43;;;;;;;;;;5009378;28;20511;-72
2021/12/16 13:04:16;;;;;;;20.17;12.40;;;;;;;;;;5005069;28;20080;-71
2021/12/16 13:06:51;;;;;;;19.45;11.63;;;;;;;;;;4995381;28;20118;-71
2021/12/16 13:09:31;;;;;;;17.33;11.43;;;;;;;;;;4993555;28;20067;-73
2021/12/16 13:11:57;;;;;;;18.17;12.20;;;;;;;;;;4993962;28;20033;-72
2021/12/16 13:14:41;;;;;;;21.17;13.25;;;;;;;;;;5007254;28;20061;-71
2021/12/16 13:26:09;;;;;;;26.13;14.70;;;;;;;;;;4990806;28;20129;-71
2021/12/16 13:28:34;;;;;;;22.00;12.90;;;;;;;;;;4994024;28;20166;-72
2021/12/16 13:31:05;;;;;;;20.83;12.77;;;;;;;;;;4993396;28;20037;-72
2021/12/16 13:33:40;;;;;;;22.75;13.63;;;;;;;;;;4993938;28;20500;-72
2021/12/16 13:36:15;;;;;;;25.42;15.55;;;;;;;;;;4993815;28;20045;-72
2021/12/16 13:38:43;;;;;;;21.52;12.88;;;;;;;;;;4989853;28;20275;-71
2021/12/16 13:41:13;;;;;;;21.25;12.93;;;;;;;;;;4976110;28;20050;-72
2021/12/16 13:43:40;;;;;;;20.20;12.90;;;;;;;;;;4988427;28;20022;-72
2021/12/16 14:05:57;;;;;;;27.88;15.48;;;;;;;;;;4993460;28;20046;-71
2021/12/16 14:08:35;;;;;;;26.67;14.98;;;;;;;;;;5008335;28;20118;-71
2021/12/16 14:11:16;;;;;;;23.90;13.90;;;;;;;;;;4993163;28;20023;-70
2021/12/16 14:16:36;;;;;;;24.73;13.88;;;;;;;;;;4993270;28;20054;-70
2021/12/16 14:25:00;;;;;;;29.48;15.05;;;;;;;;;;4993248;28;20041;-71
2021/12/16 14:34:11;;;;;;;32.03;17.13;;;;;;;;;;4993022;28;20045;-70
2021/12/16 14:36:45;;;;;;;29.83;16.27;;;;;;;;;;4993765;28;20578;-71
2021/12/16 14:41:47;;;;;;;30.42;16.17;;;;;;;;;;4993902;28;20034;-72
2021/12/16 14:46:59;;;;;;;28.20;15.60;;;;;;;;;;4992841;28;20041;-70
2021/12/16 14:49:29;;;;;;;31.02;15.90;;;;;;;;;;5005040;28;20142;-71
2021/12/16 14:51:57;;;;;;;32.50;16.92;;;;;;;;;;4979622;28;20038;-72
2021/12/16 14:54:23;;;;;;;29.50;15.38;;;;;;;;;;4991781;28;20022;-71
2021/12/16 14:56:49;;;;;;;29.48;15.85;;;;;;;;;;4993252;28;20435;-71
2021/12/16 14:59:18;;;;;;;30.67;15.55;;;;;;;;;;4992089;28;20090;-71
2021/12/16 15:01:49;;;;;;;28.90;15.07;;;;;;;;;;4993157;28;20435;-72
2021/12/16 15:04:20;;;;;;;29.70;15.80;;;;;;;;;;4992417;28;20042;-71
2021/12/16 15:07:00;;;;;;;28.65;15.73;;;;;;;;;;4992824;28;20114;-72
2021/12/16 15:09:30;;;;;;;23.45;12.80;;;;;;;;;;4993157;28;20044;-72
2021/12/16 15:12:21;;;;;;;24.38;13.68;;;;;;;;;;4993260;28;20558;-72
2021/12/16 15:15:05;;;;;;;23.83;13.10;;;;;;;;;;4991068;28;20022;-72
2021/12/16 15:44:53;;;;;;;29.25;14.82;;;;;;;;;;4982171;28;20455;-72
2021/12/16 15:47:20;;;;;;;20.52;11.93;;;;;;;;;;4989323;28;20503;-72
2021/12/16 15:49:47;;;;;;;23.85;12.80;;;;;;;;;;4990703;28;20046;-71
2021/12/16 15:52:13;;;;;;;23.77;12.75;;;;;;;;;;4991980;28;20025;-71
2021/12/16 15:54:46;;;;;;;18.48;10.60;;;;;;;;;;4991232;28;20026;-71
2021/12/16 15:57:12;;;;;;;20.33;12.52;;;;;;;;;;4994078;28;20015;-71
2021/12/16 15:59:52;;;;;;;20.83;12.02;;;;;;;;;;4977371;28;20076;-72
2021/12/16 16:02:18;;;;;;;20.17;11.13;;;;;;;;;;4991692;28;20023;-72
2021/12/16 16:04:44;;;;;;;23.08;11.57;;;;;;;;;;4990569;28;20030;-70
2021/12/16 16:07:11;;;;;;;22.30;11.75;;;;;;;;;;4989234;28;20148;-71
2021/12/16 16:09:45;;;;;;;18.77;12.05;;;;;;;;;;5006755;28;20539;-70
2021/12/16 16:12:16;;;;;;;21.55;12.07;;;;;;;;;;4989631;28;20602;-71
2021/12/16 16:14:44;;;;;;;16.50;8.63;;;;;;;;;;4990648;28;20057;-72
2021/12/16 16:17:15;;;;;;;21.88;11.95;;;;;;;;;;4990975;28;20023;-70
2021/12/16 16:19:43;;;;;;;23.08;13.13;;;;;;;;;;4990090;28;20030;-71
2021/12/16 16:22:10;;;;;;;23.58;12.23;;;;;;;;;;5032481;22;20050;-67
2021/12/16 16:24:39;;;;;;;23.90;13.75;;;;;;;;;;5010735;28;20034;-68
2021/12/16 16:27:09;;;;;;;23.77;12.52;;;;;;;;;;5014418;28;20054;-68
2021/12/16 16:29:35;;;;;;;25.25;13.30;;;;;;;;;;5024945;28;20113;-68
2021/12/16 16:32:03;;;;;;;23.27;13.27;;;;;;;;;;5058353;28;20111;-69
2021/12/16 16:34:30;;;;;;;20.90;12.50;;;;;;;;;;5053239;28;20033;-69
2021/12/16 16:37:05;;;;;;;23.15;12.25;;;;;;;;;;5053816;28;20017;-67
2021/12/16 16:39:32;;;;;;;23.83;13.32;;;;;;;;;;5053902;28;20091;-68
2021/12/16 16:41:59;;;;;;;24.30;13.27;;;;;;;;;;5054017;28;20608;-68
2021/12/16 16:44:26;;;;;;;23.85;14.32;;;;;;;;;;5053437;28;20057;-68
2021/12/16 16:47:00;;;;;;;25.80;13.90;;;;;;;;;;5053952;28;20517;-68
2021/12/16 16:49:48;;;;;;;23.55;13.70;;;;;;;;;;5052548;28;20108;-68
2021/12/16 16:52:19;;;;;;;26.17;15.75;;;;;;;;;;5049146;28;20051;-68
2021/12/16 16:54:49;;;;;;;25.10;15.13;;;;;;;;;;5033040;28;20505;-68
2021/12/16 16:57:15;;;;;;;25.77;14.38;;;;;;;;;;5030589;28;20068;-68
2021/12/16 16:59:46;;;;;;;25.30;14.18;;;;;;;;;;5033641;28;20509;-68
2021/12/16 17:02:15;;;;;;;16.02;10.35;;;;;;;;;;5033630;28;20049;-69
2021/12/16 17:04:42;;;;;;;23.70;13.38;;;;;;;;;;5033191;28;20056;-69
2021/12/16 17:07:08;;;;;;;24.95;14.23;;;;;;;;;;5033736;28;20064;-69
2021/12/16 17:09:38;;;;;;;26.40;13.75;;;;;;;;;;5033228;28;20438;-68
2021/12/16 17:12:15;;;;;;;23.60;13.88;;;;;;;;;;5033153;28;20583;-68
2021/12/16 17:14:54;;;;;;;23.58;13.27;;;;;;;;;;5032726;28;20045;-68
2021/12/16 17:17:23;;;;;;;20.67;12.98;;;;;;;;;;5033486;28;20022;-68
2021/12/16 17:20:04;;;;;;;22.55;12.27;;;;;;;;;;5033208;28;20444;-68
2021/12/16 17:22:35;;;;;;;21.52;11.40;;;;;;;;;;5031900;28;20025;-67
2021/12/16 17:25:01;;;;;;;18.98;10.20;;;;;;;;;;5031049;28;20045;-68
2021/12/16 17:27:34;;;;;;;20.77;11.48;;;;;;;;;;5033000;28;20406;-68
2021/12/16 17:30:01;;;;;;;18.70;11.05;;;;;;;;;;5033124;28;20071;-68
2021/12/16 17:32:29;;;;;;;18.35;10.80;;;;;;;;;;5033011;28;20041;-68
2021/12/16 17:34:57;;;;;;;21.23;11.40;;;;;;;;;;5030958;28;20146;-67
2021/12/16 17:37:29;;;;;;;20.13;12.77;;;;;;;;;;5031614;28;20018;-68
2021/12/16 17:39:58;;;;;;;24.92;11.68;;;;;;;;;;5032465;28;20022;-68
2021/12/16 17:42:30;;;;;;;20.27;12.43;;;;;;;;;;5032565;28;20032;-68
2021/12/16 17:44:58;;;;;;;22.25;13.10;;;;;;;;;;5032240;28;20044;-68
2021/12/16 17:47:28;;;;;;;23.50;13.60;;;;;;;;;;5032645;28;20075;-70
2021/12/16 17:49:54;;;;;;;21.65;13.13;;;;;;;;;;5030812;28;20446;-68
2021/12/16 17:52:30;;;;;;;21.42;13.02;;;;;;;;;;5030633;28;20086;-68
2021/12/16 17:54:58;;;;;;;26.15;14.60;;;;;;;;;;5030214;28;20094;-67
2021/12/16 17:57:27;;;;;;;21.58;13.02;;;;;;;;;;5030840;28;20029;-67
2021/12/16 17:59:53;;;;;;;23.33;13.32;;;;;;;;;;5030670;28;20558;-67
2021/12/16 18:02:23;;;;;;;28.10;13.98;;;;;;;;;;5030674;28;20025;-68